createdAt,value
2018-09-22T00:00:02.412Z,13.70
2018-09-22T00:02:30.582Z,13.70
2018-09-22T00:04:58.818Z,13.60
2018-09-22T00:07:27.030Z,13.50
2018-09-22T00:09:55.306Z,13.50
2018-09-22T00:12:23.518Z,13.50
2018-09-22T00:14:51.922Z,13.50
2018-09-22T00:17:20.322Z,13.50
2018-09-22T00:19:48.584Z,13.50
2018-09-22T00:22:17.214Z,13.50
2018-09-22T00:24:45.476Z,13.40
2018-09-22T00:27:13.770Z,13.40
2018-09-22T00:29:41.981Z,13.40
2018-09-22T00:32:10.212Z,13.40
2018-09-22T00:34:39.078Z,13.30
2018-09-22T00:37:08.423Z,13.20
2018-09-22T00:39:37.576Z,13.20
2018-09-22T00:42:07.132Z,13.20
2018-09-22T00:44:35.349Z,13.10
2018-09-22T00:47:03.506Z,13.20
2018-09-22T00:49:31.685Z,13.10
2018-09-22T00:51:59.886Z,13.10
2018-09-22T00:54:28.040Z,13.10
2018-09-22T00:56:56.267Z,13.10
2018-09-22T00:59:24.606Z,13.00
2018-09-22T01:01:52.777Z,13.00
2018-09-22T01:04:20.983Z,12.90
2018-09-22T01:06:49.149Z,12.90
2018-09-22T01:09:17.324Z,12.90
2018-09-22T01:11:45.485Z,12.90
2018-09-22T01:14:13.663Z,12.90
2018-09-22T01:16:41.933Z,12.90
2018-09-22T01:19:10.134Z,12.90
2018-09-22T01:21:38.326Z,12.90
2018-09-22T01:24:06.520Z,12.90
2018-09-22T01:26:34.732Z,12.90
2018-09-22T01:29:02.894Z,12.90
2018-09-22T01:31:31.047Z,12.80
2018-09-22T01:33:59.226Z,12.80
2018-09-22T01:36:27.549Z,12.80
2018-09-22T01:38:55.805Z,12.80
2018-09-22T01:41:23.970Z,12.80
2018-09-22T01:43:52.141Z,12.80
2018-09-22T01:46:27.175Z,12.70
2018-09-22T01:48:55.390Z,12.70
2018-09-22T01:51:23.540Z,12.70
2018-09-22T01:53:51.742Z,12.50
2018-09-22T01:56:19.968Z,12.60
2018-09-22T01:58:48.114Z,12.60
2018-09-22T02:01:16.292Z,12.50
2018-09-22T02:03:44.534Z,12.50
2018-09-22T02:06:12.792Z,12.50
2018-09-22T02:08:41.018Z,12.50
2018-09-22T02:11:09.190Z,12.40
2018-09-22T02:13:37.378Z,12.50
2018-09-22T02:16:05.602Z,12.50
2018-09-22T02:18:33.766Z,12.50
2018-09-22T02:21:01.958Z,12.50
2018-09-22T02:23:30.096Z,12.60
2018-09-22T02:25:58.339Z,12.60
2018-09-22T02:28:26.481Z,12.70
2018-09-22T02:30:54.721Z,12.70
2018-09-22T02:33:22.882Z,12.70
2018-09-22T02:35:51.265Z,12.80
2018-09-22T02:38:19.438Z,12.70
2018-09-22T02:40:47.650Z,12.70
2018-09-22T02:43:15.787Z,12.70
2018-09-22T02:45:43.959Z,12.70
2018-09-22T02:48:12.095Z,12.70
2018-09-22T02:50:40.258Z,12.70
2018-09-22T02:53:08.412Z,12.70
2018-09-22T02:55:43.341Z,12.60
2018-09-22T02:58:11.512Z,12.50
2018-09-22T03:00:39.682Z,12.60
2018-09-22T03:03:07.859Z,12.60
2018-09-22T03:05:36.185Z,12.50
2018-09-22T03:08:04.345Z,12.60
2018-09-22T03:10:32.497Z,12.60
2018-09-22T03:13:00.666Z,12.60
2018-09-22T03:15:28.900Z,12.60
2018-09-22T03:17:57.009Z,12.50
2018-09-22T03:20:25.177Z,12.50
2018-09-22T03:22:53.330Z,12.40
2018-09-22T03:25:21.549Z,12.40
2018-09-22T03:27:49.714Z,12.40
2018-09-22T03:30:17.858Z,12.40
2018-09-22T03:32:46.091Z,12.30
2018-09-22T03:35:14.245Z,12.30
2018-09-22T03:37:42.437Z,12.30
2018-09-22T03:40:10.590Z,12.30
2018-09-22T03:42:38.750Z,12.20
2018-09-22T03:45:06.944Z,12.30
2018-09-22T03:47:35.130Z,12.10
2018-09-22T03:50:03.281Z,12.00
2018-09-22T03:52:31.450Z,12.00
2018-09-22T03:54:59.630Z,12.00
2018-09-22T03:57:27.787Z,11.90
2018-09-22T03:59:55.945Z,11.80
2018-09-22T04:02:24.090Z,11.80
2018-09-22T04:04:52.311Z,11.80
2018-09-22T04:07:20.487Z,11.80
2018-09-22T04:09:48.707Z,11.80
2018-09-22T04:12:16.863Z,11.80
2018-09-22T04:14:45.044Z,11.70
2018-09-22T04:17:13.215Z,11.70
2018-09-22T04:19:41.398Z,11.50
2018-09-22T04:22:09.599Z,11.50
2018-09-22T04:24:37.806Z,11.50
2018-09-22T04:27:05.970Z,11.60
2018-09-22T04:29:34.120Z,11.60
2018-09-22T04:32:02.319Z,11.60
2018-09-22T04:34:30.506Z,11.60
2018-09-22T04:36:58.693Z,11.70
2018-09-22T04:39:26.865Z,11.80
2018-09-22T04:41:55.050Z,11.80
2018-09-22T04:44:23.352Z,11.80
2018-09-22T04:46:51.528Z,11.80
2018-09-22T04:49:19.709Z,11.90
2018-09-22T04:51:47.862Z,11.90
2018-09-22T04:54:16.022Z,11.90
2018-09-22T04:56:44.252Z,11.90
2018-09-22T04:59:12.458Z,11.90
2018-09-22T05:01:40.634Z,11.90
2018-09-22T05:04:08.797Z,11.90
2018-09-22T05:06:36.965Z,11.90
2018-09-22T05:09:10.194Z,12.00
2018-09-22T05:11:38.398Z,12.00
2018-09-22T05:14:06.626Z,12.00
2018-09-22T05:16:34.814Z,12.00
2018-09-22T05:19:02.998Z,12.00
2018-09-22T05:21:31.157Z,11.90
2018-09-22T05:23:59.330Z,11.80
2018-09-22T05:26:27.480Z,11.80
2018-09-22T05:28:55.713Z,11.70
2018-09-22T05:31:23.933Z,11.60
2018-09-22T05:33:52.128Z,11.70
2018-09-22T05:36:20.712Z,11.60
2018-09-22T05:38:49.033Z,11.60
2018-09-22T05:41:17.194Z,11.50
2018-09-22T05:43:45.587Z,11.50
2018-09-22T05:46:14.280Z,11.50
2018-09-22T05:48:42.629Z,11.50
2018-09-22T05:51:11.393Z,11.50
2018-09-22T05:53:40.372Z,11.50
2018-09-22T05:56:08.530Z,11.70
2018-09-22T05:58:36.747Z,11.90
2018-09-22T06:01:04.906Z,12.10
2018-09-22T06:03:33.112Z,12.30
2018-09-22T06:06:01.268Z,12.40
2018-09-22T06:08:29.483Z,12.50
2018-09-22T06:10:58.247Z,12.60
2018-09-22T06:13:26.416Z,12.60
2018-09-22T06:15:54.707Z,12.50
2018-09-22T06:18:22.964Z,12.40
2018-09-22T06:20:51.256Z,12.30
2018-09-22T06:23:19.607Z,12.30
2018-09-22T06:25:47.733Z,12.20
2018-09-22T06:28:15.889Z,12.20
2018-09-22T06:30:44.111Z,12.30
2018-09-22T06:33:12.303Z,12.30
2018-09-22T06:35:40.458Z,12.40
2018-09-22T06:38:08.638Z,12.30
2018-09-22T06:40:36.886Z,12.30
2018-09-22T06:43:05.091Z,12.40
2018-09-22T06:45:33.262Z,12.50
2018-09-22T06:48:01.476Z,12.50
2018-09-22T06:50:29.646Z,12.60
2018-09-22T06:52:57.826Z,12.80
2018-09-22T06:55:26.050Z,12.90
2018-09-22T06:57:54.476Z,13.00
2018-09-22T07:00:22.643Z,13.10
2018-09-22T07:02:51.668Z,13.30
2018-09-22T07:05:19.990Z,13.50
2018-09-22T07:07:48.134Z,13.70
2018-09-22T07:10:16.343Z,13.80
2018-09-22T07:12:44.542Z,14.00
2018-09-22T07:15:12.889Z,14.10
2018-09-22T07:17:44.445Z,14.20
2018-09-22T07:20:12.800Z,14.40
2018-09-22T07:22:46.202Z,14.50
2018-09-22T07:25:14.484Z,14.50
2018-09-22T07:27:42.650Z,14.60
2018-09-22T07:30:10.837Z,14.50
2018-09-22T07:32:39.694Z,14.50
2018-09-22T07:35:07.895Z,14.50
2018-09-22T07:37:36.083Z,14.30
2018-09-22T07:40:04.266Z,14.30
2018-09-22T07:42:32.502Z,14.20
2018-09-22T07:45:00.713Z,14.30
2018-09-22T07:47:28.882Z,14.40
2018-09-22T07:49:57.157Z,14.40
2018-09-22T07:52:25.363Z,14.40
2018-09-22T07:54:53.570Z,14.50
2018-09-22T07:57:21.734Z,14.70
2018-09-22T07:59:49.939Z,14.80
2018-09-22T08:02:18.134Z,14.90
2018-09-22T08:04:46.304Z,15.10
2018-09-22T08:07:14.457Z,15.20
2018-09-22T08:09:42.633Z,15.50
2018-09-22T08:12:10.831Z,15.50
2018-09-22T08:14:38.990Z,15.60
2018-09-22T08:17:07.185Z,15.70
2018-09-22T08:19:35.359Z,15.70
2018-09-22T08:22:03.520Z,15.60
2018-09-22T08:24:31.708Z,15.70
2018-09-22T08:26:59.906Z,15.90
2018-09-22T08:29:28.055Z,16.10
2018-09-22T08:31:56.237Z,16.00
2018-09-22T08:34:26.145Z,16.00
2018-09-22T08:36:54.521Z,16.10
2018-09-22T08:39:22.440Z,16.20
2018-09-22T08:41:50.616Z,16.40
2018-09-22T08:44:18.759Z,16.60
2018-09-22T08:46:46.917Z,16.70
2018-09-22T08:49:15.103Z,16.70
2018-09-22T08:51:43.262Z,16.70
2018-09-22T08:54:11.444Z,16.70
2018-09-22T08:56:39.833Z,16.90
2018-09-22T08:59:07.974Z,17.00
2018-09-22T09:01:36.227Z,17.10
2018-09-22T09:04:04.448Z,17.20
2018-09-22T09:06:32.592Z,17.10
2018-09-22T09:09:00.740Z,17.20
2018-09-22T09:11:28.975Z,17.30
2018-09-22T09:13:57.054Z,17.40
2018-09-22T09:16:25.214Z,17.40
2018-09-22T09:18:53.365Z,17.50
2018-09-22T09:21:21.529Z,17.60
2018-09-22T09:23:49.690Z,17.70
2018-09-22T09:26:17.907Z,17.70
2018-09-22T09:28:47.889Z,17.80
2018-09-22T09:31:17.207Z,17.50
2018-09-22T09:33:45.373Z,17.50
2018-09-22T09:36:13.531Z,17.30
2018-09-22T09:38:41.686Z,17.40
2018-09-22T09:41:10.402Z,17.70
2018-09-22T09:43:39.443Z,17.90
2018-09-22T09:46:07.606Z,18.10
2018-09-22T09:48:35.778Z,18.20
2018-09-22T09:51:03.958Z,18.20
2018-09-22T09:53:32.446Z,18.20
2018-09-22T09:56:00.674Z,18.40
2018-09-22T09:58:28.933Z,18.40
2018-09-22T10:00:57.198Z,18.50
2018-09-22T10:03:25.440Z,18.60
2018-09-22T10:05:53.652Z,18.50
2018-09-22T10:08:21.893Z,18.40
2018-09-22T10:10:50.481Z,18.40
2018-09-22T10:13:18.950Z,18.60
2018-09-22T10:15:47.123Z,18.70
2018-09-22T10:18:15.320Z,18.50
2018-09-22T10:20:43.487Z,18.30
2018-09-22T10:23:11.669Z,18.40
2018-09-22T10:25:40.089Z,18.50
2018-09-22T10:28:08.357Z,18.80
2018-09-22T10:30:36.534Z,19.00
2018-09-22T10:33:04.951Z,19.50
2018-09-22T10:35:33.203Z,19.90
2018-09-22T10:38:01.419Z,20.00
2018-09-22T10:40:29.617Z,19.60
2018-09-22T10:42:57.842Z,19.30
2018-09-22T10:45:26.118Z,19.50
2018-09-22T10:47:54.547Z,19.70
2018-09-22T10:50:22.940Z,19.90
2018-09-22T10:52:51.354Z,19.90
2018-09-22T10:55:19.625Z,19.90
2018-09-22T10:57:47.921Z,20.10
2018-09-22T11:00:16.407Z,20.20
2018-09-22T11:02:44.678Z,20.30
2018-09-22T11:05:12.884Z,20.00
2018-09-22T11:07:41.090Z,20.10
2018-09-22T11:10:09.379Z,20.20
2018-09-22T11:12:37.862Z,20.00
2018-09-22T11:15:06.249Z,19.90
2018-09-22T11:17:34.655Z,20.30
2018-09-22T11:20:02.849Z,20.70
2018-09-22T11:22:31.122Z,20.50
2018-09-22T11:24:59.499Z,20.60
2018-09-22T11:27:27.936Z,20.50
2018-09-22T11:29:56.219Z,20.70
2018-09-22T11:32:24.476Z,20.90
2018-09-22T11:34:52.767Z,21.00
2018-09-22T11:37:20.968Z,21.00
2018-09-22T11:39:49.672Z,21.00
2018-09-22T11:42:17.930Z,21.20
2018-09-22T11:44:46.158Z,21.00
2018-09-22T11:47:14.410Z,20.80
2018-09-22T11:49:42.635Z,20.80
2018-09-22T11:52:10.915Z,20.70
2018-09-22T11:54:39.093Z,20.40
2018-09-22T11:57:07.359Z,20.30
2018-09-22T11:59:35.585Z,20.50
2018-09-22T12:02:03.950Z,20.90
2018-09-22T12:04:32.134Z,21.40
2018-09-22T12:07:00.430Z,21.70
2018-09-22T12:09:28.734Z,21.70
2018-09-22T12:11:57.073Z,21.80
2018-09-22T12:14:25.346Z,21.90
2018-09-22T12:16:53.723Z,22.00
2018-09-22T12:19:22.014Z,22.10
2018-09-22T12:21:50.366Z,22.40
2018-09-22T12:24:18.612Z,22.40
2018-09-22T12:26:46.821Z,22.00
2018-09-22T12:29:15.250Z,22.00
2018-09-22T12:31:43.568Z,22.30
2018-09-22T12:34:11.885Z,22.20
2018-09-22T12:36:40.196Z,22.30
2018-09-22T12:39:09.793Z,22.40
2018-09-22T12:41:38.273Z,21.90
2018-09-22T12:44:06.962Z,21.90
2018-09-22T12:46:35.257Z,22.20
2018-09-22T12:49:03.919Z,22.20
2018-09-22T12:51:32.417Z,22.10
2018-09-22T12:54:00.637Z,22.30
2018-09-22T12:56:28.878Z,22.10
2018-09-22T12:58:57.392Z,22.00
2018-09-22T13:01:25.731Z,21.90
2018-09-22T13:03:54.096Z,21.60
2018-09-22T13:06:22.433Z,21.30
2018-09-22T13:08:50.977Z,21.30
2018-09-22T13:11:19.572Z,21.40
2018-09-22T13:13:47.834Z,21.50
2018-09-22T13:16:16.161Z,21.50
2018-09-22T13:18:44.425Z,21.50
2018-09-22T13:21:12.662Z,21.60
2018-09-22T13:23:40.955Z,21.80
2018-09-22T13:26:09.424Z,21.80
2018-09-22T13:28:37.916Z,21.80
2018-09-22T13:31:06.259Z,21.60
2018-09-22T13:33:34.612Z,21.70
2018-09-22T13:36:02.806Z,21.80
2018-09-22T13:38:31.029Z,22.00
2018-09-22T13:40:59.197Z,21.90
2018-09-22T13:43:27.524Z,21.50
2018-09-22T13:45:55.730Z,21.50
2018-09-22T13:48:24.124Z,21.40
2018-09-22T13:50:52.422Z,21.30
2018-09-22T13:53:20.657Z,21.50
2018-09-22T13:55:49.038Z,21.60
2018-09-22T13:58:17.234Z,21.60
2018-09-22T14:00:45.511Z,21.70
2018-09-22T14:03:13.683Z,21.50
2018-09-22T14:05:42.016Z,21.30
2018-09-22T14:08:10.338Z,21.40
2018-09-22T14:10:38.664Z,21.40
2018-09-22T14:13:07.015Z,21.30
2018-09-22T14:15:35.166Z,21.10
2018-09-22T14:18:03.497Z,21.10
2018-09-22T14:20:31.719Z,21.10
2018-09-22T14:22:59.947Z,20.90
2018-09-22T14:25:28.153Z,20.70
2018-09-22T14:27:56.366Z,20.50
2018-09-22T14:30:24.501Z,20.50
2018-09-22T14:32:52.674Z,20.20
2018-09-22T14:35:20.838Z,20.10
2018-09-22T14:37:48.997Z,20.10
2018-09-22T14:40:17.160Z,20.10
2018-09-22T14:42:45.339Z,20.10
2018-09-22T14:45:13.478Z,20.10
2018-09-22T14:47:41.650Z,20.10
2018-09-22T14:50:09.855Z,20.10
2018-09-22T14:52:38.046Z,19.90
2018-09-22T14:55:06.220Z,20.00
2018-09-22T14:57:34.536Z,19.80
2018-09-22T15:00:02.850Z,19.70
2018-09-22T15:02:31.049Z,19.70
2018-09-22T15:04:59.258Z,19.60
2018-09-22T15:07:27.782Z,19.60
2018-09-22T15:09:56.087Z,19.60
2018-09-22T15:12:24.262Z,19.70
2018-09-22T15:14:52.494Z,19.80
2018-09-22T15:17:20.789Z,19.80
2018-09-22T15:19:48.925Z,19.70
2018-09-22T15:22:17.100Z,19.60
2018-09-22T15:24:45.309Z,19.60
2018-09-22T15:27:14.130Z,19.40
2018-09-22T15:29:42.358Z,19.30
2018-09-22T15:32:10.603Z,19.20
2018-09-22T15:34:38.862Z,19.20
2018-09-22T15:37:07.206Z,19.10
2018-09-22T15:39:35.543Z,19.10
2018-09-22T15:42:03.828Z,19.10
2018-09-22T15:44:32.125Z,19.00
2018-09-22T15:47:00.322Z,19.00
2018-09-22T15:49:28.565Z,18.80
2018-09-22T15:51:56.815Z,18.70
2018-09-22T15:54:25.015Z,18.70
2018-09-22T15:56:53.346Z,18.70
2018-09-22T15:59:21.618Z,18.70
2018-09-22T16:01:49.822Z,18.60
2018-09-22T16:04:18.050Z,18.60
2018-09-22T16:06:46.246Z,18.50
2018-09-22T16:09:14.475Z,18.40
2018-09-22T16:11:42.694Z,18.40
2018-09-22T16:14:10.914Z,18.40
2018-09-22T16:16:39.086Z,18.40
2018-09-22T16:19:07.256Z,18.30
2018-09-22T16:21:35.469Z,18.30
2018-09-22T16:24:03.626Z,18.30
2018-09-22T16:26:31.829Z,18.30
2018-09-22T16:29:00.078Z,18.20
2018-09-22T16:31:28.297Z,18.20
2018-09-22T16:33:56.491Z,18.20
2018-09-22T16:36:24.751Z,18.10
2018-09-22T16:38:53.042Z,18.10
2018-09-22T16:41:21.371Z,18.00
2018-09-22T16:43:49.606Z,17.90
2018-09-22T16:46:17.829Z,17.90
2018-09-22T16:48:46.102Z,17.90
2018-09-22T16:51:14.300Z,17.90
2018-09-22T16:53:42.502Z,17.80
2018-09-22T16:56:10.838Z,17.80
2018-09-22T16:58:39.159Z,17.70
2018-09-22T17:01:08.300Z,17.70
2018-09-22T17:03:36.626Z,17.70
2018-09-22T17:06:04.916Z,17.60
2018-09-22T17:08:33.237Z,17.60
2018-09-22T17:11:01.632Z,17.50
2018-09-22T17:13:30.106Z,17.50
2018-09-22T17:15:58.601Z,17.50
2018-09-22T17:18:26.810Z,17.40
2018-09-22T17:20:55.138Z,17.30
2018-09-22T17:23:23.517Z,17.20
2018-09-22T17:25:51.694Z,17.20
2018-09-22T17:28:19.936Z,17.10
2018-09-22T17:30:48.130Z,17.00
2018-09-22T17:33:16.326Z,16.90
2018-09-22T17:35:44.486Z,16.70
2018-09-22T17:38:13.121Z,16.70
2018-09-22T17:40:41.527Z,16.60
2018-09-22T17:43:09.764Z,16.50
2018-09-22T17:45:37.914Z,16.50
2018-09-22T17:48:06.070Z,16.40
2018-09-22T17:50:34.219Z,16.20
2018-09-22T17:53:02.399Z,16.10
2018-09-22T17:55:30.542Z,16.00
2018-09-22T17:57:58.820Z,15.80
2018-09-22T18:00:26.996Z,15.70
2018-09-22T18:02:55.145Z,15.70
2018-09-22T18:05:23.297Z,15.70
2018-09-22T18:07:51.705Z,15.60
2018-09-22T18:10:19.886Z,15.70
2018-09-22T18:12:48.033Z,15.60
2018-09-22T18:15:16.187Z,15.60
2018-09-22T18:17:44.352Z,15.60
2018-09-22T18:20:12.512Z,15.60
2018-09-22T18:22:41.322Z,15.60
2018-09-22T18:25:09.460Z,15.70
2018-09-22T18:27:37.602Z,15.60
2018-09-22T18:30:05.821Z,15.50
2018-09-22T18:32:33.975Z,15.50
2018-09-22T18:35:02.243Z,15.40
2018-09-22T18:37:30.466Z,15.30
2018-09-22T18:39:58.644Z,15.20
2018-09-22T18:42:26.802Z,15.20
2018-09-22T18:44:54.977Z,15.00
2018-09-22T18:47:23.178Z,15.00
2018-09-22T18:49:51.338Z,14.90
2018-09-22T18:52:19.583Z,14.90
2018-09-22T18:54:47.758Z,15.00
2018-09-22T18:57:15.960Z,15.00
2018-09-22T18:59:44.154Z,15.00
2018-09-22T19:02:12.318Z,15.00
2018-09-22T19:04:40.535Z,15.10
2018-09-22T19:07:08.709Z,15.10
2018-09-22T19:09:36.938Z,15.10
2018-09-22T19:12:05.359Z,15.00
2018-09-22T19:14:37.455Z,14.90
2018-09-22T19:17:13.239Z,14.90
2018-09-22T19:19:58.308Z,14.80
2018-09-22T19:22:59.867Z,14.70
2018-09-22T19:25:30.695Z,14.70
2018-09-22T19:28:02.262Z,14.70
2018-09-22T19:30:36.001Z,14.70
2018-09-22T19:33:09.466Z,14.60
2018-09-22T19:35:41.918Z,14.60
2018-09-22T19:39:13.290Z,14.50
2018-09-22T19:41:49.487Z,14.60
2018-09-22T19:44:27.060Z,14.70
2018-09-22T19:47:05.442Z,14.70
2018-09-22T19:49:43.329Z,14.60
2018-09-22T19:52:21.549Z,14.50
2018-09-22T19:54:49.717Z,14.40
2018-09-22T19:57:17.894Z,14.30
2018-09-22T19:59:46.085Z,14.20
2018-09-22T20:02:14.272Z,14.20
2018-09-22T20:04:42.462Z,14.20
2018-09-22T20:07:10.624Z,14.10
2018-09-22T20:09:38.838Z,14.00
2018-09-22T20:12:07.027Z,14.00
2018-09-22T20:14:35.230Z,14.00
2018-09-22T20:17:03.402Z,14.10
2018-09-22T20:19:31.570Z,14.10
2018-09-22T20:21:59.863Z,14.10
2018-09-22T20:24:28.126Z,14.10
2018-09-22T20:26:56.298Z,14.10
2018-09-22T20:29:24.470Z,14.10
2018-09-22T20:31:52.646Z,14.00
2018-09-22T20:34:20.847Z,14.10
2018-09-22T20:36:49.054Z,14.10
2018-09-22T20:39:17.177Z,14.10
2018-09-22T20:41:45.424Z,14.20
2018-09-22T20:44:13.631Z,14.10
2018-09-22T20:46:41.761Z,14.10
2018-09-22T20:49:10.103Z,14.10
2018-09-22T20:51:38.330Z,14.00
2018-09-22T20:54:06.552Z,14.10
2018-09-22T20:56:34.695Z,14.10
2018-09-22T20:59:02.878Z,14.10
2018-09-22T21:01:31.066Z,14.10
2018-09-22T21:03:59.284Z,14.10
2018-09-22T21:06:27.459Z,14.10
2018-09-22T21:08:55.798Z,14.20
2018-09-22T21:11:23.961Z,14.20
2018-09-22T21:13:52.235Z,14.20
2018-09-22T21:16:20.499Z,14.20
2018-09-22T21:18:48.732Z,14.20
2018-09-22T21:21:17.027Z,14.20
2018-09-22T21:23:45.227Z,14.20
2018-09-22T21:26:13.406Z,14.20
2018-09-22T21:28:41.556Z,14.20
2018-09-22T21:31:09.720Z,14.20
2018-09-22T21:33:37.906Z,14.20
2018-09-22T21:36:06.197Z,14.20
2018-09-22T21:38:34.367Z,14.10
2018-09-22T21:41:02.595Z,14.10
2018-09-22T21:43:30.781Z,14.10
2018-09-22T21:45:59.010Z,14.10
2018-09-22T21:48:27.222Z,14.20
2018-09-22T21:50:55.448Z,14.00
2018-09-22T21:53:23.667Z,13.90
2018-09-22T21:55:51.877Z,13.80
2018-09-22T21:58:20.108Z,13.70
2018-09-22T22:00:52.353Z,13.60
2018-09-22T22:03:21.889Z,13.60
2018-09-22T22:05:50.093Z,13.60
2018-09-22T22:08:18.501Z,13.60
2018-09-22T22:10:47.298Z,13.60
2018-09-22T22:13:15.527Z,13.60
2018-09-22T22:15:43.697Z,13.50
2018-09-22T22:18:11.902Z,13.50
2018-09-22T22:20:40.693Z,13.50
2018-09-22T22:23:09.298Z,13.50
2018-09-22T22:25:37.473Z,13.50
2018-09-22T22:28:05.788Z,13.50
2018-09-22T22:30:34.001Z,13.50
2018-09-22T22:33:02.194Z,13.50
2018-09-22T22:35:30.365Z,13.50
2018-09-22T22:37:58.586Z,13.50
2018-09-22T22:40:26.713Z,13.50
2018-09-22T22:42:54.930Z,13.40
2018-09-22T22:45:23.108Z,13.40
2018-09-22T22:47:51.316Z,13.40
2018-09-22T22:50:19.513Z,13.40
2018-09-22T22:52:47.697Z,13.30
2018-09-22T22:55:15.853Z,13.40
2018-09-22T22:57:44.018Z,13.40
2018-09-22T23:00:12.190Z,13.40
2018-09-22T23:02:40.393Z,13.50
2018-09-22T23:05:08.540Z,13.60
2018-09-22T23:07:36.730Z,13.60
2018-09-22T23:10:04.910Z,13.60
2018-09-22T23:12:33.080Z,13.60
2018-09-22T23:15:01.300Z,13.60
2018-09-22T23:17:29.509Z,13.60
2018-09-22T23:19:57.699Z,13.60
2018-09-22T23:22:25.874Z,13.60
2018-09-22T23:24:54.031Z,13.60
2018-09-22T23:27:22.218Z,13.60
2018-09-22T23:29:50.381Z,13.60
2018-09-22T23:32:19.361Z,13.60
2018-09-22T23:34:47.530Z,13.60
2018-09-22T23:37:15.700Z,13.60
2018-09-22T23:39:50.349Z,13.50
2018-09-22T23:42:18.545Z,13.40
2018-09-22T23:44:46.764Z,13.40
2018-09-22T23:47:14.941Z,13.40
2018-09-22T23:49:43.125Z,13.40
2018-09-22T23:52:11.293Z,13.50
2018-09-22T23:54:39.429Z,13.60
2018-09-22T23:57:07.609Z,13.50
2018-09-22T23:59:35.771Z,13.50
